sensor_id;sensor_type;location;lat;lon;timestamp;temperature;humidity
7934;DHT22;4012;48.896;9.192;2023-06-22T00:00:56;21.80;99.90
7934;DHT22;4012;48.896;9.192;2023-06-22T00:03:23;21.70;99.90
7934;DHT22;4012;48.896;9.192;2023-06-22T00:05:53;21.70;99.90
7934;DHT22;4012;48.896;9.192;2023-06-22T00:08:19;21.60;99.90
7934;DHT22;4012;48.896;9.192;2023-06-22T00:10:48;21.60;99.90
7934;DHT22;4012;48.896;9.192;2023-06-22T00:13:17;21.60;99.90
7934;DHT22;4012;48.896;9.192;2023-06-22T00:15:43;21.60;99.90
7934;DHT22;4012;48.896;9.192;2023-06-22T00:18:10;21.60;99.90
7934;DHT22;4012;48.896;9.192;2023-06-22T00:20:39;21.60;99.90
7934;DHT22;4012;48.896;9.192;2023-06-22T00:23:08;21.60;99.90
7934;DHT22;4012;48.896;9.192;2023-06-22T00:25:40;21.60;99.90
7934;DHT22;4012;48.896;9.192;2023-06-22T00:28:08;21.60;99.90
7934;DHT22;4012;48.896;9.192;2023-06-22T00:30:34;21.50;99.90
7934;DHT22;4012;48.896;9.192;2023-06-22T00:33:00;21.50;99.90
7934;DHT22;4012;48.896;9.192;2023-06-22T00:35:27;21.40;99.90
7934;DHT22;4012;48.896;9.192;2023-06-22T00:37:55;21.50;99.90
7934;DHT22;4012;48.896;9.192;2023-06-22T00:40:29;21.50;99.90
7934;DHT22;4012;48.896;9.192;2023-06-22T00:42:56;21.50;99.90
7934;DHT22;4012;48.896;9.192;2023-06-22T00:45:25;21.50;99.90
7934;DHT22;4012;48.896;9.192;2023-06-22T00:47:56;21.50;99.90
7934;DHT22;4012;48.896;9.192;2023-06-22T00:50:23;21.50;99.90
7934;DHT22;4012;48.896;9.192;2023-06-22T00:52:54;21.50;99.90
7934;DHT22;4012;48.896;9.192;2023-06-22T00:55:24;21.50;99.90
7934;DHT22;4012;48.896;9.192;2023-06-22T00:57:54;21.50;99.90
7934;DHT22;4012;48.896;9.192;2023-06-22T01:00:22;21.50;99.90
7934;DHT22;4012;48.896;9.192;2023-06-22T01:02:51;21.50;99.90
7934;DHT22;4012;48.896;9.192;2023-06-22T01:05:25;21.50;99.90
7934;DHT22;4012;48.896;9.192;2023-06-22T01:10:55;21.50;99.90
7934;DHT22;4012;48.896;9.192;2023-06-22T01:13:37;21.50;99.90
7934;DHT22;4012;48.896;9.192;2023-06-22T01:16:25;21.50;99.90
7934;DHT22;4012;48.896;9.192;2023-06-22T01:18:55;21.50;99.90
7934;DHT22;4012;48.896;9.192;2023-06-22T01:21:22;21.50;99.90
7934;DHT22;4012;48.896;9.192;2023-06-22T01:29:15;21.30;99.90
7934;DHT22;4012;48.896;9.192;2023-06-22T01:31:42;21.20;99.90
7934;DHT22;4012;48.896;9.192;2023-06-22T01:34:11;21.20;99.90
7934;DHT22;4012;48.896;9.192;2023-06-22T01:36:38;21.10;99.90
7934;DHT22;4012;48.896;9.192;2023-06-22T01:39:05;21.10;99.90
7934;DHT22;4012;48.896;9.192;2023-06-22T01:41:37;21.10;99.90
7934;DHT22;4012;48.896;9.192;2023-06-22T01:44:05;20.90;99.90
7934;DHT22;4012;48.896;9.192;2023-06-22T01:46:34;20.90;99.90
7934;DHT22;4012;48.896;9.192;2023-06-22T01:49:00;20.80;99.90
7934;DHT22;4012;48.896;9.192;2023-06-22T01:51:26;20.70;99.90
7934;DHT22;4012;48.896;9.192;2023-06-22T01:53:51;20.70;99.90
7934;DHT22;4012;48.896;9.192;2023-06-22T01:56:17;20.60;99.90
7934;DHT22;4012;48.896;9.192;2023-06-22T01:58:55;20.60;99.90
7934;DHT22;4012;48.896;9.192;2023-06-22T02:01:27;20.60;99.90
7934;DHT22;4012;48.896;9.192;2023-06-22T02:04:21;20.60;99.90
7934;DHT22;4012;48.896;9.192;2023-06-22T02:06:52;20.70;99.90
7934;DHT22;4012;48.896;9.192;2023-06-22T02:09:20;20.70;99.90
7934;DHT22;4012;48.896;9.192;2023-06-22T02:11:48;20.70;99.90
7934;DHT22;4012;48.896;9.192;2023-06-22T02:14:17;20.60;99.90
7934;DHT22;4012;48.896;9.192;2023-06-22T02:16:44;20.60;99.90
7934;DHT22;4012;48.896;9.192;2023-06-22T02:19:12;20.60;99.90
7934;DHT22;4012;48.896;9.192;2023-06-22T02:21:41;20.60;99.90
7934;DHT22;4012;48.896;9.192;2023-06-22T02:24:06;20.60;99.90
7934;DHT22;4012;48.896;9.192;2023-06-22T02:26:32;20.60;99.90
7934;DHT22;4012;48.896;9.192;2023-06-22T02:28:58;20.50;99.90
7934;DHT22;4012;48.896;9.192;2023-06-22T02:31:23;20.50;99.90
7934;DHT22;4012;48.896;9.192;2023-06-22T02:33:58;20.50;99.90
7934;DHT22;4012;48.896;9.192;2023-06-22T02:36:24;20.40;99.90
7934;DHT22;4012;48.896;9.192;2023-06-22T02:38:50;20.40;99.90
7934;DHT22;4012;48.896;9.192;2023-06-22T02:41:16;20.40;99.90
7934;DHT22;4012;48.896;9.192;2023-06-22T02:43:45;20.40;99.90
7934;DHT22;4012;48.896;9.192;2023-06-22T02:46:11;20.30;99.90
7934;DHT22;4012;48.896;9.192;2023-06-22T02:48:39;20.30;99.90
7934;DHT22;4012;48.896;9.192;2023-06-22T02:51:04;20.20;99.90
7934;DHT22;4012;48.896;9.192;2023-06-22T02:53:30;20.30;99.90
7934;DHT22;4012;48.896;9.192;2023-06-22T02:55:56;20.30;99.90
7934;DHT22;4012;48.896;9.192;2023-06-22T02:58:21;20.30;99.90
7934;DHT22;4012;48.896;9.192;2023-06-22T03:00:47;20.30;99.90
7934;DHT22;4012;48.896;9.192;2023-06-22T03:03:13;20.30;99.90
7934;DHT22;4012;48.896;9.192;2023-06-22T03:05:38;20.30;99.90
7934;DHT22;4012;48.896;9.192;2023-06-22T03:08:05;20.20;99.90
7934;DHT22;4012;48.896;9.192;2023-06-22T03:10:31;20.20;99.90
7934;DHT22;4012;48.896;9.192;2023-06-22T03:12:56;20.10;99.90
7934;DHT22;4012;48.896;9.192;2023-06-22T03:15:22;20.10;99.90
7934;DHT22;4012;48.896;9.192;2023-06-22T03:17:47;20.20;99.90
7934;DHT22;4012;48.896;9.192;2023-06-22T03:20:13;20.20;99.90
7934;DHT22;4012;48.896;9.192;2023-06-22T03:22:40;20.20;99.90
7934;DHT22;4012;48.896;9.192;2023-06-22T03:25:07;20.20;99.90
7934;DHT22;4012;48.896;9.192;2023-06-22T03:27:38;20.20;99.90
7934;DHT22;4012;48.896;9.192;2023-06-22T03:30:06;20.20;99.90
7934;DHT22;4012;48.896;9.192;2023-06-22T03:32:32;20.20;99.90
7934;DHT22;4012;48.896;9.192;2023-06-22T03:34:58;20.20;99.90
7934;DHT22;4012;48.896;9.192;2023-06-22T03:37:27;20.20;99.90
7934;DHT22;4012;48.896;9.192;2023-06-22T03:39:53;20.30;99.90
7934;DHT22;4012;48.896;9.192;2023-06-22T03:42:19;20.30;99.90
7934;DHT22;4012;48.896;9.192;2023-06-22T03:44:45;20.20;99.90
7934;DHT22;4012;48.896;9.192;2023-06-22T03:47:10;20.20;99.90
7934;DHT22;4012;48.896;9.192;2023-06-22T03:49:36;20.20;99.90
7934;DHT22;4012;48.896;9.192;2023-06-22T03:52:02;20.20;99.90
7934;DHT22;4012;48.896;9.192;2023-06-22T03:54:29;20.20;99.90
7934;DHT22;4012;48.896;9.192;2023-06-22T03:56:56;20.20;99.90
7934;DHT22;4012;48.896;9.192;2023-06-22T03:59:22;20.10;99.90
7934;DHT22;4012;48.896;9.192;2023-06-22T04:01:47;20.10;99.90
7934;DHT22;4012;48.896;9.192;2023-06-22T04:04:13;20.10;99.90
7934;DHT22;4012;48.896;9.192;2023-06-22T04:06:39;20.10;99.90
7934;DHT22;4012;48.896;9.192;2023-06-22T04:09:06;20.20;99.90
7934;DHT22;4012;48.896;9.192;2023-06-22T04:11:32;20.30;99.90
7934;DHT22;4012;48.896;9.192;2023-06-22T04:13:57;20.30;99.90
7934;DHT22;4012;48.896;9.192;2023-06-22T04:16:23;20.50;99.90
7934;DHT22;4012;48.896;9.192;2023-06-22T04:18:49;20.60;99.90
7934;DHT22;4012;48.896;9.192;2023-06-22T04:21:14;20.60;99.90
7934;DHT22;4012;48.896;9.192;2023-06-22T04:23:40;20.50;99.90
7934;DHT22;4012;48.896;9.192;2023-06-22T04:26:05;20.50;99.90
7934;DHT22;4012;48.896;9.192;2023-06-22T04:28:31;20.40;99.90
7934;DHT22;4012;48.896;9.192;2023-06-22T04:31:01;20.50;99.90
7934;DHT22;4012;48.896;9.192;2023-06-22T04:33:30;20.60;99.90
7934;DHT22;4012;48.896;9.192;2023-06-22T04:35:56;20.70;99.90
7934;DHT22;4012;48.896;9.192;2023-06-22T04:38:23;20.80;99.90
7934;DHT22;4012;48.896;9.192;2023-06-22T04:40:49;20.80;99.90
7934;DHT22;4012;48.896;9.192;2023-06-22T04:43:15;20.80;99.90
7934;DHT22;4012;48.896;9.192;2023-06-22T04:45:40;21.00;99.90
7934;DHT22;4012;48.896;9.192;2023-06-22T04:48:06;21.10;99.90
7934;DHT22;4012;48.896;9.192;2023-06-22T04:50:33;21.10;99.90
7934;DHT22;4012;48.896;9.192;2023-06-22T04:52:59;21.20;99.90
7934;DHT22;4012;48.896;9.192;2023-06-22T04:55:24;21.20;99.90
7934;DHT22;4012;48.896;9.192;2023-06-22T04:57:51;21.20;99.90
7934;DHT22;4012;48.896;9.192;2023-06-22T05:00:20;21.10;99.90
7934;DHT22;4012;48.896;9.192;2023-06-22T05:02:48;21.10;99.90
7934;DHT22;4012;48.896;9.192;2023-06-22T05:05:14;21.20;99.90
7934;DHT22;4012;48.896;9.192;2023-06-22T05:07:42;21.30;99.90
7934;DHT22;4012;48.896;9.192;2023-06-22T05:10:09;21.40;99.90
7934;DHT22;4012;48.896;9.192;2023-06-22T05:12:37;21.50;99.90
7934;DHT22;4012;48.896;9.192;2023-06-22T05:15:03;21.50;99.90
7934;DHT22;4012;48.896;9.192;2023-06-22T05:17:28;21.60;99.90
7934;DHT22;4012;48.896;9.192;2023-06-22T05:19:54;21.70;99.90
7934;DHT22;4012;48.896;9.192;2023-06-22T05:22:20;21.70;99.90
7934;DHT22;4012;48.896;9.192;2023-06-22T05:24:46;21.90;99.90
7934;DHT22;4012;48.896;9.192;2023-06-22T05:27:12;22.10;99.90
7934;DHT22;4012;48.896;9.192;2023-06-22T05:29:38;22.30;99.90
7934;DHT22;4012;48.896;9.192;2023-06-22T05:32:05;22.30;99.90
7934;DHT22;4012;48.896;9.192;2023-06-22T05:34:30;22.30;99.90
7934;DHT22;4012;48.896;9.192;2023-06-22T05:36:56;22.30;99.90
7934;DHT22;4012;48.896;9.192;2023-06-22T05:39:24;22.50;99.90
7934;DHT22;4012;48.896;9.192;2023-06-22T05:41:49;22.50;99.90
7934;DHT22;4012;48.896;9.192;2023-06-22T05:44:15;22.40;99.90
7934;DHT22;4012;48.896;9.192;2023-06-22T05:46:42;22.30;99.90
7934;DHT22;4012;48.896;9.192;2023-06-22T05:49:12;22.40;99.90
7934;DHT22;4012;48.896;9.192;2023-06-22T05:51:38;22.60;99.90
7934;DHT22;4012;48.896;9.192;2023-06-22T05:54:04;22.50;99.90
7934;DHT22;4012;48.896;9.192;2023-06-22T05:56:30;22.70;99.90
7934;DHT22;4012;48.896;9.192;2023-06-22T05:58:56;22.80;99.90
7934;DHT22;4012;48.896;9.192;2023-06-22T06:01:21;22.70;99.90
7934;DHT22;4012;48.896;9.192;2023-06-22T06:03:47;22.60;99.90
7934;DHT22;4012;48.896;9.192;2023-06-22T06:06:15;22.50;99.90
7934;DHT22;4012;48.896;9.192;2023-06-22T06:08:41;22.50;99.90
7934;DHT22;4012;48.896;9.192;2023-06-22T06:11:06;22.80;99.90
7934;DHT22;4012;48.896;9.192;2023-06-22T06:13:32;22.90;99.90
7934;DHT22;4012;48.896;9.192;2023-06-22T06:15:57;23.40;99.90
7934;DHT22;4012;48.896;9.192;2023-06-22T06:18:24;23.70;99.90
7934;DHT22;4012;48.896;9.192;2023-06-22T06:20:50;23.70;99.90
7934;DHT22;4012;48.896;9.192;2023-06-22T06:23:15;24.00;99.90
7934;DHT22;4012;48.896;9.192;2023-06-22T06:25:41;24.70;99.90
7934;DHT22;4012;48.896;9.192;2023-06-22T06:28:07;26.80;99.90
7934;DHT22;4012;48.896;9.192;2023-06-22T06:30:32;27.40;99.90
7934;DHT22;4012;48.896;9.192;2023-06-22T06:32:58;26.90;99.90
7934;DHT22;4012;48.896;9.192;2023-06-22T06:35:23;27.40;99.90
7934;DHT22;4012;48.896;9.192;2023-06-22T06:37:50;29.30;99.90
7934;DHT22;4012;48.896;9.192;2023-06-22T06:40:17;29.10;99.90
7934;DHT22;4012;48.896;9.192;2023-06-22T06:42:44;30.70;99.90
7934;DHT22;4012;48.896;9.192;2023-06-22T06:45:21;32.90;99.90
7934;DHT22;4012;48.896;9.192;2023-06-22T06:47:51;33.70;99.90
7934;DHT22;4012;48.896;9.192;2023-06-22T06:50:18;33.40;99.90
7934;DHT22;4012;48.896;9.192;2023-06-22T06:52:43;32.80;99.90
7934;DHT22;4012;48.896;9.192;2023-06-22T06:55:10;34.80;99.90
7934;DHT22;4012;48.896;9.192;2023-06-22T06:57:38;33.80;99.90
7934;DHT22;4012;48.896;9.192;2023-06-22T07:00:09;34.00;99.90
7934;DHT22;4012;48.896;9.192;2023-06-22T07:02:38;36.30;99.90
7934;DHT22;4012;48.896;9.192;2023-06-22T07:05:05;33.00;99.90
7934;DHT22;4012;48.896;9.192;2023-06-22T07:07:31;34.70;99.90
7934;DHT22;4012;48.896;9.192;2023-06-22T07:09:57;31.40;99.90
7934;DHT22;4012;48.896;9.192;2023-06-22T07:12:22;33.70;99.90
7934;DHT22;4012;48.896;9.192;2023-06-22T07:14:48;35.10;99.90
7934;DHT22;4012;48.896;9.192;2023-06-22T07:17:15;34.40;99.90
7934;DHT22;4012;48.896;9.192;2023-06-22T07:19:41;34.60;99.90
7934;DHT22;4012;48.896;9.192;2023-06-22T07:22:07;32.40;99.90
7934;DHT22;4012;48.896;9.192;2023-06-22T07:24:33;30.50;99.90
7934;DHT22;4012;48.896;9.192;2023-06-22T07:26:59;30.10;99.90
7934;DHT22;4012;48.896;9.192;2023-06-22T07:29:25;32.60;99.90
7934;DHT22;4012;48.896;9.192;2023-06-22T07:31:52;33.60;99.90
7934;DHT22;4012;48.896;9.192;2023-06-22T07:34:18;32.00;99.90
7934;DHT22;4012;48.896;9.192;2023-06-22T07:36:44;32.20;99.90
7934;DHT22;4012;48.896;9.192;2023-06-22T07:39:10;33.10;99.90
7934;DHT22;4012;48.896;9.192;2023-06-22T07:41:38;32.10;99.90
7934;DHT22;4012;48.896;9.192;2023-06-22T07:44:04;31.80;99.90
7934;DHT22;4012;48.896;9.192;2023-06-22T07:46:29;32.70;99.90
7934;DHT22;4012;48.896;9.192;2023-06-22T07:48:56;31.00;99.90
7934;DHT22;4012;48.896;9.192;2023-06-22T07:51:22;33.20;99.90
7934;DHT22;4012;48.896;9.192;2023-06-22T07:53:47;33.70;99.90
7934;DHT22;4012;48.896;9.192;2023-06-22T07:56:13;31.50;99.90
7934;DHT22;4012;48.896;9.192;2023-06-22T07:58:44;30.90;99.90
7934;DHT22;4012;48.896;9.192;2023-06-22T08:01:10;32.20;99.90
7934;DHT22;4012;48.896;9.192;2023-06-22T08:03:36;33.60;99.90
7934;DHT22;4012;48.896;9.192;2023-06-22T08:06:02;31.60;99.90
7934;DHT22;4012;48.896;9.192;2023-06-22T08:08:28;30.90;99.90
7934;DHT22;4012;48.896;9.192;2023-06-22T08:10:53;33.10;99.90
7934;DHT22;4012;48.896;9.192;2023-06-22T08:13:19;35.10;99.90
7934;DHT22;4012;48.896;9.192;2023-06-22T08:15:44;34.70;99.90
7934;DHT22;4012;48.896;9.192;2023-06-22T08:18:10;35.10;99.90
7934;DHT22;4012;48.896;9.192;2023-06-22T08:20:36;36.50;99.90
7934;DHT22;4012;48.896;9.192;2023-06-22T08:23:01;36.20;99.90
7934;DHT22;4012;48.896;9.192;2023-06-22T08:25:32;35.10;99.90
7934;DHT22;4012;48.896;9.192;2023-06-22T08:27:58;36.10;99.90
7934;DHT22;4012;48.896;9.192;2023-06-22T08:30:24;35.80;99.90
7934;DHT22;4012;48.896;9.192;2023-06-22T08:32:49;35.80;99.90
7934;DHT22;4012;48.896;9.192;2023-06-22T08:35:17;34.50;99.90
7934;DHT22;4012;48.896;9.192;2023-06-22T08:37:43;33.10;99.90
7934;DHT22;4012;48.896;9.192;2023-06-22T08:40:11;32.90;99.90
7934;DHT22;4012;48.896;9.192;2023-06-22T08:42:37;32.60;99.90
7934;DHT22;4012;48.896;9.192;2023-06-22T08:45:03;31.20;99.90
7934;DHT22;4012;48.896;9.192;2023-06-22T08:47:29;31.10;99.90
7934;DHT22;4012;48.896;9.192;2023-06-22T08:49:55;30.80;99.90
7934;DHT22;4012;48.896;9.192;2023-06-22T08:52:20;29.90;99.90
7934;DHT22;4012;48.896;9.192;2023-06-22T08:54:47;29.90;99.90
7934;DHT22;4012;48.896;9.192;2023-06-22T08:57:13;30.10;99.90
7934;DHT22;4012;48.896;9.192;2023-06-22T08:59:38;30.20;99.90
7934;DHT22;4012;48.896;9.192;2023-06-22T09:02:05;30.20;99.90
7934;DHT22;4012;48.896;9.192;2023-06-22T09:04:31;30.50;99.90
7934;DHT22;4012;48.896;9.192;2023-06-22T09:07:00;31.00;99.90
7934;DHT22;4012;48.896;9.192;2023-06-22T09:09:26;32.70;99.90
7934;DHT22;4012;48.896;9.192;2023-06-22T09:11:51;33.60;99.90
7934;DHT22;4012;48.896;9.192;2023-06-22T09:14:17;34.10;99.90
7934;DHT22;4012;48.896;9.192;2023-06-22T09:16:43;35.30;99.90
7934;DHT22;4012;48.896;9.192;2023-06-22T09:19:08;36.00;99.90
7934;DHT22;4012;48.896;9.192;2023-06-22T09:21:34;33.80;99.90
7934;DHT22;4012;48.896;9.192;2023-06-22T09:24:00;33.40;99.90
7934;DHT22;4012;48.896;9.192;2023-06-22T09:26:25;34.60;99.90
7934;DHT22;4012;48.896;9.192;2023-06-22T09:28:51;33.00;99.90
7934;DHT22;4012;48.896;9.192;2023-06-22T09:31:16;32.90;99.90
7934;DHT22;4012;48.896;9.192;2023-06-22T09:33:43;33.00;99.90
7934;DHT22;4012;48.896;9.192;2023-06-22T09:36:08;32.80;99.90
7934;DHT22;4012;48.896;9.192;2023-06-22T09:38:37;32.70;99.90
7934;DHT22;4012;48.896;9.192;2023-06-22T09:41:03;33.40;99.90
7934;DHT22;4012;48.896;9.192;2023-06-22T09:43:30;34.90;99.90
7934;DHT22;4012;48.896;9.192;2023-06-22T09:45:56;35.20;99.90
7934;DHT22;4012;48.896;9.192;2023-06-22T09:48:22;35.20;99.90
7934;DHT22;4012;48.896;9.192;2023-06-22T09:50:48;37.10;99.90
7934;DHT22;4012;48.896;9.192;2023-06-22T09:53:13;36.00;99.90
7934;DHT22;4012;48.896;9.192;2023-06-22T09:55:39;37.40;99.90
7934;DHT22;4012;48.896;9.192;2023-06-22T09:58:04;37.80;99.90
7934;DHT22;4012;48.896;9.192;2023-06-22T10:00:30;37.90;99.90
7934;DHT22;4012;48.896;9.192;2023-06-22T10:02:56;37.60;99.90
7934;DHT22;4012;48.896;9.192;2023-06-22T10:05:22;36.50;99.90
7934;DHT22;4012;48.896;9.192;2023-06-22T10:07:47;36.90;99.90
7934;DHT22;4012;48.896;9.192;2023-06-22T10:10:13;34.10;99.90
7934;DHT22;4012;48.896;9.192;2023-06-22T10:12:48;35.90;99.90
7934;DHT22;4012;48.896;9.192;2023-06-22T10:15:19;35.50;99.90
7934;DHT22;4012;48.896;9.192;2023-06-22T10:17:46;34.40;99.90
7934;DHT22;4012;48.896;9.192;2023-06-22T10:20:12;33.50;99.90
7934;DHT22;4012;48.896;9.192;2023-06-22T10:22:43;32.40;99.90
7934;DHT22;4012;48.896;9.192;2023-06-22T10:25:10;32.50;99.90
7934;DHT22;4012;48.896;9.192;2023-06-22T10:27:35;31.20;99.90
7934;DHT22;4012;48.896;9.192;2023-06-22T10:30:01;31.10;99.90
7934;DHT22;4012;48.896;9.192;2023-06-22T10:32:27;32.10;99.90
7934;DHT22;4012;48.896;9.192;2023-06-22T10:34:55;32.70;99.90
7934;DHT22;4012;48.896;9.192;2023-06-22T10:37:21;32.40;99.90
7934;DHT22;4012;48.896;9.192;2023-06-22T10:39:47;32.90;99.90
7934;DHT22;4012;48.896;9.192;2023-06-22T10:42:13;34.00;99.90
7934;DHT22;4012;48.896;9.192;2023-06-22T10:44:38;33.20;99.90
7934;DHT22;4012;48.896;9.192;2023-06-22T10:47:06;32.50;99.90
7934;DHT22;4012;48.896;9.192;2023-06-22T10:49:32;32.40;99.90
7934;DHT22;4012;48.896;9.192;2023-06-22T10:51:58;32.10;99.90
7934;DHT22;4012;48.896;9.192;2023-06-22T10:54:23;32.10;99.90
7934;DHT22;4012;48.896;9.192;2023-06-22T10:56:49;32.20;99.90
7934;DHT22;4012;48.896;9.192;2023-06-22T10:59:15;32.90;99.90
7934;DHT22;4012;48.896;9.192;2023-06-22T11:01:41;32.90;99.90
7934;DHT22;4012;48.896;9.192;2023-06-22T11:04:07;32.50;99.90
7934;DHT22;4012;48.896;9.192;2023-06-22T11:06:32;32.30;99.90
7934;DHT22;4012;48.896;9.192;2023-06-22T11:08:58;32.90;99.90
7934;DHT22;4012;48.896;9.192;2023-06-22T11:11:25;33.50;99.90
7934;DHT22;4012;48.896;9.192;2023-06-22T11:13:50;33.20;99.90
7934;DHT22;4012;48.896;9.192;2023-06-22T11:16:16;33.20;99.90
7934;DHT22;4012;48.896;9.192;2023-06-22T11:18:41;32.40;99.90
7934;DHT22;4012;48.896;9.192;2023-06-22T11:21:07;31.80;99.90
7934;DHT22;4012;48.896;9.192;2023-06-22T11:23:33;31.80;99.90
7934;DHT22;4012;48.896;9.192;2023-06-22T11:25:58;31.90;99.90
7934;DHT22;4012;48.896;9.192;2023-06-22T11:28:24;32.00;99.90
7934;DHT22;4012;48.896;9.192;2023-06-22T11:30:49;31.50;99.90
7934;DHT22;4012;48.896;9.192;2023-06-22T11:33:15;31.30;99.90
7934;DHT22;4012;48.896;9.192;2023-06-22T11:35:40;31.60;99.90
7934;DHT22;4012;48.896;9.192;2023-06-22T11:38:06;32.00;99.90
7934;DHT22;4012;48.896;9.192;2023-06-22T11:40:33;32.70;99.90
7934;DHT22;4012;48.896;9.192;2023-06-22T11:42:58;32.30;99.90
7934;DHT22;4012;48.896;9.192;2023-06-22T11:45:24;31.80;99.90
7934;DHT22;4012;48.896;9.192;2023-06-22T11:47:49;32.20;99.90
7934;DHT22;4012;48.896;9.192;2023-06-22T11:50:15;32.50;99.90
7934;DHT22;4012;48.896;9.192;2023-06-22T11:52:40;33.50;99.90
7934;DHT22;4012;48.896;9.192;2023-06-22T11:55:06;33.80;99.90
7934;DHT22;4012;48.896;9.192;2023-06-22T11:57:37;33.00;99.90
7934;DHT22;4012;48.896;9.192;2023-06-22T12:00:03;33.40;99.90
7934;DHT22;4012;48.896;9.192;2023-06-22T12:02:41;33.40;99.90
7934;DHT22;4012;48.896;9.192;2023-06-22T12:05:07;32.60;99.90
7934;DHT22;4012;48.896;9.192;2023-06-22T12:07:33;32.40;99.90
7934;DHT22;4012;48.896;9.192;2023-06-22T12:09:59;32.30;99.90
7934;DHT22;4012;48.896;9.192;2023-06-22T12:12:24;32.50;99.90
7934;DHT22;4012;48.896;9.192;2023-06-22T12:14:50;32.50;99.90
7934;DHT22;4012;48.896;9.192;2023-06-22T12:17:15;32.50;99.90
7934;DHT22;4012;48.896;9.192;2023-06-22T12:19:41;32.90;99.90
7934;DHT22;4012;48.896;9.192;2023-06-22T12:22:07;32.40;99.90
7934;DHT22;4012;48.896;9.192;2023-06-22T12:24:32;32.00;99.90
7934;DHT22;4012;48.896;9.192;2023-06-22T12:26:58;31.60;99.90
7934;DHT22;4012;48.896;9.192;2023-06-22T12:29:23;31.40;99.90
7934;DHT22;4012;48.896;9.192;2023-06-22T12:31:49;31.50;99.90
7934;DHT22;4012;48.896;9.192;2023-06-22T12:34:17;31.60;99.90
7934;DHT22;4012;48.896;9.192;2023-06-22T12:36:43;32.20;99.90
7934;DHT22;4012;48.896;9.192;2023-06-22T12:39:09;32.40;99.90
7934;DHT22;4012;48.896;9.192;2023-06-22T12:41:35;32.70;99.90
7934;DHT22;4012;48.896;9.192;2023-06-22T12:44:00;32.40;99.90
7934;DHT22;4012;48.896;9.192;2023-06-22T12:46:26;32.40;99.90
7934;DHT22;4012;48.896;9.192;2023-06-22T12:48:52;32.30;99.90
7934;DHT22;4012;48.896;9.192;2023-06-22T12:51:21;32.50;99.90
7934;DHT22;4012;48.896;9.192;2023-06-22T12:53:47;32.60;99.90
7934;DHT22;4012;48.896;9.192;2023-06-22T12:56:13;32.70;99.90
7934;DHT22;4012;48.896;9.192;2023-06-22T12:58:38;32.50;99.90
7934;DHT22;4012;48.896;9.192;2023-06-22T13:01:04;32.60;99.90
7934;DHT22;4012;48.896;9.192;2023-06-22T13:03:30;32.50;99.90
7934;DHT22;4012;48.896;9.192;2023-06-22T13:05:55;32.70;99.90
7934;DHT22;4012;48.896;9.192;2023-06-22T13:08:21;32.50;99.90
7934;DHT22;4012;48.896;9.192;2023-06-22T13:10:46;32.50;99.90
7934;DHT22;4012;48.896;9.192;2023-06-22T13:13:12;32.40;99.90
7934;DHT22;4012;48.896;9.192;2023-06-22T13:15:38;32.20;99.90
7934;DHT22;4012;48.896;9.192;2023-06-22T13:18:03;32.30;99.90
7934;DHT22;4012;48.896;9.192;2023-06-22T13:20:29;32.40;99.90
7934;DHT22;4012;48.896;9.192;2023-06-22T13:22:55;32.20;99.90
7934;DHT22;4012;48.896;9.192;2023-06-22T13:25:21;31.80;99.90
7934;DHT22;4012;48.896;9.192;2023-06-22T13:27:49;31.40;99.90
7934;DHT22;4012;48.896;9.192;2023-06-22T13:30:15;31.30;99.90
7934;DHT22;4012;48.896;9.192;2023-06-22T13:32:41;31.70;99.90
7934;DHT22;4012;48.896;9.192;2023-06-22T13:35:08;31.90;99.90
7934;DHT22;4012;48.896;9.192;2023-06-22T13:37:35;32.30;99.90
7934;DHT22;4012;48.896;9.192;2023-06-22T13:40:00;33.00;99.90
7934;DHT22;4012;48.896;9.192;2023-06-22T13:42:28;33.50;99.90
7934;DHT22;4012;48.896;9.192;2023-06-22T13:44:54;33.60;99.90
7934;DHT22;4012;48.896;9.192;2023-06-22T13:47:19;33.70;99.90
7934;DHT22;4012;48.896;9.192;2023-06-22T13:49:45;33.10;99.90
7934;DHT22;4012;48.896;9.192;2023-06-22T13:52:10;32.90;99.90
7934;DHT22;4012;48.896;9.192;2023-06-22T13:54:38;33.20;99.90
7934;DHT22;4012;48.896;9.192;2023-06-22T13:57:04;33.70;99.90
7934;DHT22;4012;48.896;9.192;2023-06-22T13:59:30;34.00;99.90
7934;DHT22;4012;48.896;9.192;2023-06-22T14:01:55;34.10;99.90
7934;DHT22;4012;48.896;9.192;2023-06-22T14:04:23;33.90;99.90
7934;DHT22;4012;48.896;9.192;2023-06-22T14:06:48;33.40;99.90
7934;DHT22;4012;48.896;9.192;2023-06-22T14:09:14;33.60;99.90
7934;DHT22;4012;48.896;9.192;2023-06-22T14:11:40;33.70;99.90
7934;DHT22;4012;48.896;9.192;2023-06-22T14:14:05;33.80;99.90
7934;DHT22;4012;48.896;9.192;2023-06-22T14:16:31;33.50;99.90
7934;DHT22;4012;48.896;9.192;2023-06-22T14:18:56;33.60;99.90
7934;DHT22;4012;48.896;9.192;2023-06-22T14:21:22;33.50;99.90
7934;DHT22;4012;48.896;9.192;2023-06-22T14:23:48;33.30;99.90
7934;DHT22;4012;48.896;9.192;2023-06-22T14:26:17;33.40;99.90
7934;DHT22;4012;48.896;9.192;2023-06-22T14:28:47;33.20;99.90
7934;DHT22;4012;48.896;9.192;2023-06-22T14:31:18;33.40;99.90
7934;DHT22;4012;48.896;9.192;2023-06-22T14:33:46;33.50;99.90
7934;DHT22;4012;48.896;9.192;2023-06-22T14:36:15;33.60;99.90
7934;DHT22;4012;48.896;9.192;2023-06-22T14:38:43;33.50;99.90
7934;DHT22;4012;48.896;9.192;2023-06-22T14:41:12;33.80;99.90
7934;DHT22;4012;48.896;9.192;2023-06-22T14:43:37;33.10;99.90
7934;DHT22;4012;48.896;9.192;2023-06-22T14:46:03;33.30;99.90
7934;DHT22;4012;48.896;9.192;2023-06-22T14:48:29;33.40;99.90
7934;DHT22;4012;48.896;9.192;2023-06-22T14:50:54;33.40;99.90
7934;DHT22;4012;48.896;9.192;2023-06-22T14:53:20;33.50;99.90
7934;DHT22;4012;48.896;9.192;2023-06-22T14:55:46;33.60;99.90
7934;DHT22;4012;48.896;9.192;2023-06-22T14:58:11;33.80;99.90
7934;DHT22;4012;48.896;9.192;2023-06-22T15:00:37;33.80;99.90
7934;DHT22;4012;48.896;9.192;2023-06-22T15:03:04;33.70;99.90
7934;DHT22;4012;48.896;9.192;2023-06-22T15:05:32;33.60;99.90
7934;DHT22;4012;48.896;9.192;2023-06-22T15:07:58;33.80;99.90
7934;DHT22;4012;48.896;9.192;2023-06-22T15:10:24;33.70;99.90
7934;DHT22;4012;48.896;9.192;2023-06-22T15:12:50;33.70;99.90
7934;DHT22;4012;48.896;9.192;2023-06-22T15:15:16;33.70;99.90
7934;DHT22;4012;48.896;9.192;2023-06-22T15:17:41;34.00;99.90
7934;DHT22;4012;48.896;9.192;2023-06-22T15:20:07;33.70;99.90
7934;DHT22;4012;48.896;9.192;2023-06-22T15:22:33;34.00;99.90
7934;DHT22;4012;48.896;9.192;2023-06-22T15:24:58;33.90;99.90
7934;DHT22;4012;48.896;9.192;2023-06-22T15:27:27;33.90;99.90
7934;DHT22;4012;48.896;9.192;2023-06-22T15:29:53;33.90;99.90
7934;DHT22;4012;48.896;9.192;2023-06-22T15:32:21;33.50;99.90
7934;DHT22;4012;48.896;9.192;2023-06-22T15:34:47;33.60;99.90
7934;DHT22;4012;48.896;9.192;2023-06-22T15:37:15;33.60;99.90
7934;DHT22;4012;48.896;9.192;2023-06-22T15:39:45;33.60;99.90
7934;DHT22;4012;48.896;9.192;2023-06-22T15:42:13;33.70;99.90
7934;DHT22;4012;48.896;9.192;2023-06-22T15:44:39;33.60;99.90
7934;DHT22;4012;48.896;9.192;2023-06-22T15:47:05;33.60;99.90
7934;DHT22;4012;48.896;9.192;2023-06-22T15:49:30;33.30;99.90
7934;DHT22;4012;48.896;9.192;2023-06-22T15:51:56;33.00;99.90
7934;DHT22;4012;48.896;9.192;2023-06-22T15:54:21;32.90;99.90
7934;DHT22;4012;48.896;9.192;2023-06-22T15:56:47;32.60;99.90
7934;DHT22;4012;48.896;9.192;2023-06-22T15:59:13;32.40;99.90
7934;DHT22;4012;48.896;9.192;2023-06-22T16:01:39;32.40;99.90
7934;DHT22;4012;48.896;9.192;2023-06-22T16:04:05;32.40;99.90
7934;DHT22;4012;48.896;9.192;2023-06-22T16:06:30;32.50;99.90